Aérodrome :
LOGIN :

S'inscrire | Disclaimer

   EN    FR    IT 

 










Légende :    VFR   VFR Marginal   IFR   IFR Intensif   IFR Très Intensif
Visi : 
Plafond : 
>= 8 km
>= 3000ft
5 à 8 km
1000 à 3000 ft
1500m à 5 km
500 à 1000 ft
800 à 1500m
200 à 500 ft
< 800m
< 200 ft
Symboles :   Orages  Brouillard  Fortes neiges  Fortes précipitations  Vent > 20 kt
SIGMETs :   Divers  Orages  Givrage  Turbulence  Onde Orograph.  Cendres Volcan.






- Altitude de l'aérodrome : 3 ft
- Code IATA : LWR


EHLW - Leuuwarden Air Base

DERNIER METAR :
  • 301925Z AUTO 29016KT 250V330 9999 -RA SCT014 FEW015CB OVC016 17/14 Q1011 GRN

METARs EXPIRÉS :
  • 301914Z AUTO 29014KT 260V330 9999 SCT013 OVC015 17/14 Q1011 GRN
  • 301902Z AUTO 29015KT 260V330 9999 FEW013 OVC015 17/14 Q1011 WHT
  • 301855Z AUTO 29015KT 260V330 9999 BKN014 OVC016 18/14 Q1011 GRN
  • 301825Z AUTO 30013KT 260V340 9999 BKN011 BKN013 OVC017 18/15 Q1010 GRN
  • 301820Z AUTO 30014KT 260V340 9999 SCT011 BKN013 BKN018 18/16 Q1011 GRN
  • 301755Z AUTO 31013KT 270V350 9999 BKN015 OVC018 19/15 Q1010 WHT
  • 301748Z AUTO 31011KT 280V360 9999 BKN014 OVC017 19/16 Q1010 GRN
  • 301734Z AUTO 32012KT 280V360 9999 SCT016 BKN029 OVC230 20/16 Q1010 WHT
  • 301725Z AUTO 32012KT 300V010 9999 BKN230 20/16 Q1010 BLU
  • 301655Z AUTO 31010KT 280V360 9999 OVC140 20/15 Q1010 BLU

TAF TAF EHLW
Valide du 30 à 17h jusqu'au 01 à 05h UTC


301621Z 3017/0105 28008KT CAVOK
TEMPO 3018/0102 VRB10G25KT 4500 SHRA RA SCT008 BKN012 OVC020 FEW050CB
PROB40
TEMPO 3019/3022 2500 +SHRA TSRA BKN006 OVC010 SCT040CB
TEMPO 0102/0105 FEW008 SCT012



MET'MAP, la Météo Aéronautique d'un coup d'oeil ! - Copyright ORBIFLY Décembre 2007 - Disclaimer

ORBIFLY MET'MAP TEAM :

Programmation & Développement : Alexandra Zaïnal
Sur une idée originale de : Baudouin d'Aumeries
Soutien technique & logistique : Manuel Goepfert
Assistance : Marc-Olivier Méhu




SOURCES & CREDITS :

   NOAA